Impacts TAF Board INFO
FOR SITUATIONAL AWARENESS. NOT TO BE USED FOR FLIGHT PLANNING PURPOSES.
IDs:

KSEA - Seattle-Tacoma Intl, WA, US

Issued at 1720 UTC 13 Dec 2017
Updated at 2052 UTC 13 Dec 2017
Potential Impact None Slight Moderate High
Time1953Z 13/21Z 13/22Z 13/23Z 14/00Z 14/01Z 14/02Z 14/03Z 14/04Z 14/05Z 14/06Z 14/07Z 14/08Z 14/09Z>>
Type OBS PRVL PRVL PRVL PRVL PRVL PRVL PRVL PRVL PRVL PRVL PRVL PRVL PRVL
VIS 10 >6 >6 >6 >6 >6 >6 >6 >6 >6 >6 >6 >6 >6
CIG 250 -- -- -- -- -- -- -- -- -- -- -- -- --
Cover BKN SCT SCT SCT SCT SCT SCT SCT SCT SCT SCT SCT SCT SCT
FltCat VFR VFR VFR VFR VFR VFR VFR VFR VFR VFR VFR VFR VFR VFR
WX -- -- -- -- -- -- -- -- -- -- -- -- -- --
WDir 360 40 40 40 40 40 40 40 40 40 40 40 40 40
WSpd 10 5 5 5 5 5 5 5 5 5 5 5 5 5
WGst -- -- -- -- -- -- -- -- -- -- -- -- -- --

Raw TAF
KSEA 131720Z 1318/1424 VRB04KT P6SM FEW007 SCT250
  FM131900 04005KT P6SM SCT250
  FM141200 04006KT 1/2SM FG VV001
  FM142100 05004KT P6SM SKC


Raw METAR
KSEA 131953Z 36010KT 10SM BKN250 08/04 A3040 RMK AO2 SLP304 T00830039
KSEA 131853Z 01008KT 10SM SCT250 07/03 A3040 RMK AO2 SLP304 T00670028
KSEA 131753Z 36007KT 10SM FEW015 SCT250 06/01 A3043 RMK AO2 SLP313 T00560011 10061 20011 50010

METAR Board
Radar Display
Forecast Discussion

FOR SITUATIONAL AWARENESS. NOT TO BE USED FOR FLIGHT PLANNING PURPOSES.